sensor_id;sensor_type;location;lat;lon;timestamp;pressure;altitude;pressure_sealevel;temperature;humidity
9335;BME280;4706;41.844;26.082;2023-05-19T00:01:35;100611.63;;;17.13;90.20
9335;BME280;4706;41.844;26.082;2023-05-19T00:04:02;100616.03;;;17.14;90.31
9335;BME280;4706;41.844;26.082;2023-05-19T00:06:31;100609.78;;;17.17;90.14
9335;BME280;4706;41.844;26.082;2023-05-19T00:08:58;100604.56;;;17.16;90.38
9335;BME280;4706;41.844;26.082;2023-05-19T00:11:25;100588.22;;;17.14;90.01
9335;BME280;4706;41.844;26.082;2023-05-19T00:13:53;100589.63;;;17.20;89.66
9335;BME280;4706;41.844;26.082;2023-05-19T00:16:19;100597.38;;;17.15;89.00
9335;BME280;4706;41.844;26.082;2023-05-19T00:18:45;100591.13;;;17.18;88.73
9335;BME280;4706;41.844;26.082;2023-05-19T00:21:11;100580.47;;;17.08;88.95
9335;BME280;4706;41.844;26.082;2023-05-19T00:23:37;100591.50;;;17.16;88.26
9335;BME280;4706;41.844;26.082;2023-05-19T00:26:02;100592.84;;;17.10;88.56
9335;BME280;4706;41.844;26.082;2023-05-19T00:28:28;100575.59;;;17.05;88.50
9335;BME280;4706;41.844;26.082;2023-05-19T00:30:53;100584.63;;;17.14;88.35
9335;BME280;4706;41.844;26.082;2023-05-19T00:33:19;100585.19;;;17.07;87.67
9335;BME280;4706;41.844;26.082;2023-05-19T00:35:45;100582.91;;;17.09;87.69
9335;BME280;4706;41.844;26.082;2023-05-19T00:38:10;100583.94;;;17.05;88.39
9335;BME280;4706;41.844;26.082;2023-05-19T00:40:36;100596.19;;;17.04;88.15
9335;BME280;4706;41.844;26.082;2023-05-19T00:43:01;100590.53;;;17.00;88.28
9335;BME280;4706;41.844;26.082;2023-05-19T00:45:27;100584.59;;;16.89;88.96
9335;BME280;4706;41.844;26.082;2023-05-19T00:47:53;100589.94;;;16.94;88.45
9335;BME280;4706;41.844;26.082;2023-05-19T00:50:18;100586.34;;;16.94;88.47
9335;BME280;4706;41.844;26.082;2023-05-19T00:52:44;100583.00;;;17.01;88.74
9335;BME280;4706;41.844;26.082;2023-05-19T00:55:10;100578.59;;;16.99;88.45
9335;BME280;4706;41.844;26.082;2023-05-19T00:57:36;100575.47;;;17.01;88.44
9335;BME280;4706;41.844;26.082;2023-05-19T01:00:02;100584.25;;;17.03;88.21
9335;BME280;4706;41.844;26.082;2023-05-19T01:02:28;100569.56;;;17.03;88.41
9335;BME280;4706;41.844;26.082;2023-05-19T01:04:55;100565.16;;;17.02;87.67
9335;BME280;4706;41.844;26.082;2023-05-19T01:07:21;100574.44;;;17.06;87.63
9335;BME280;4706;41.844;26.082;2023-05-19T01:09:47;100569.91;;;17.01;87.61
9335;BME280;4706;41.844;26.082;2023-05-19T01:12:14;100579.22;;;17.17;87.37
9335;BME280;4706;41.844;26.082;2023-05-19T01:14:41;100573.53;;;17.14;87.25
9335;BME280;4706;41.844;26.082;2023-05-19T01:17:52;100576.88;;;17.07;87.15
9335;BME280;4706;41.844;26.082;2023-05-19T01:20:22;100560.31;;;17.11;87.54
9335;BME280;4706;41.844;26.082;2023-05-19T01:28:52;100569.13;;;17.01;87.40
9335;BME280;4706;41.844;26.082;2023-05-19T01:31:23;100576.75;;;17.04;87.44
9335;BME280;4706;41.844;26.082;2023-05-19T01:33:52;100577.06;;;16.90;87.70
9335;BME280;4706;41.844;26.082;2023-05-19T01:36:19;100577.41;;;16.88;87.77
9335;BME280;4706;41.844;26.082;2023-05-19T01:38:49;100577.53;;;16.92;87.69
9335;BME280;4706;41.844;26.082;2023-05-19T01:41:15;100577.44;;;17.01;87.95
9335;BME280;4706;41.844;26.082;2023-05-19T01:43:42;100565.03;;;16.98;87.74
9335;BME280;4706;41.844;26.082;2023-05-19T01:46:08;100565.28;;;16.93;87.70
9335;BME280;4706;41.844;26.082;2023-05-19T01:48:34;100579.88;;;17.02;87.50
9335;BME280;4706;41.844;26.082;2023-05-19T01:51:00;100580.56;;;16.99;87.28
9335;BME280;4706;41.844;26.082;2023-05-19T01:53:25;100570.59;;;16.86;87.59
9335;BME280;4706;41.844;26.082;2023-05-19T01:55:53;100580.91;;;16.97;87.64
9335;BME280;4706;41.844;26.082;2023-05-19T01:58:46;100583.56;;;16.94;87.66
9335;BME280;4706;41.844;26.082;2023-05-19T02:01:36;100585.41;;;16.90;87.66
9335;BME280;4706;41.844;26.082;2023-05-19T02:04:18;100598.00;;;16.87;87.62
9335;BME280;4706;41.844;26.082;2023-05-19T02:07:09;100592.94;;;16.89;87.62
9335;BME280;4706;41.844;26.082;2023-05-19T02:12:35;100592.72;;;16.94;87.92
9335;BME280;4706;41.844;26.082;2023-05-19T02:15:36;100600.22;;;16.94;88.00
9335;BME280;4706;41.844;26.082;2023-05-19T02:18:03;100594.06;;;16.88;87.21
9335;BME280;4706;41.844;26.082;2023-05-19T02:20:30;100604.75;;;16.98;87.05
9335;BME280;4706;41.844;26.082;2023-05-19T02:22:56;100604.63;;;16.95;86.91
9335;BME280;4706;41.844;26.082;2023-05-19T02:25:21;100600.91;;;16.91;86.91
9335;BME280;4706;41.844;26.082;2023-05-19T02:27:51;100597.88;;;16.84;87.23
9335;BME280;4706;41.844;26.082;2023-05-19T02:30:17;100603.34;;;16.92;87.45
9335;BME280;4706;41.844;26.082;2023-05-19T02:32:42;100597.69;;;16.89;86.98
9335;BME280;4706;41.844;26.082;2023-05-19T02:35:11;100601.28;;;16.89;87.17
9335;BME280;4706;41.844;26.082;2023-05-19T02:37:37;100614.34;;;16.89;87.20
9335;BME280;4706;41.844;26.082;2023-05-19T02:40:03;100623.13;;;16.91;87.35
9335;BME280;4706;41.844;26.082;2023-05-19T02:42:28;100624.38;;;16.81;87.48
9335;BME280;4706;41.844;26.082;2023-05-19T02:44:54;100616.59;;;16.74;87.85
9335;BME280;4706;41.844;26.082;2023-05-19T02:47:20;100620.59;;;16.86;87.59
9335;BME280;4706;41.844;26.082;2023-05-19T02:49:45;100623.00;;;16.87;87.73
9335;BME280;4706;41.844;26.082;2023-05-19T02:52:11;100623.25;;;16.82;87.95
9335;BME280;4706;41.844;26.082;2023-05-19T02:54:36;100620.66;;;16.77;87.03
9335;BME280;4706;41.844;26.082;2023-05-19T02:57:01;100638.97;;;16.78;87.55
9335;BME280;4706;41.844;26.082;2023-05-19T02:59:27;100640.94;;;16.78;87.86
9335;BME280;4706;41.844;26.082;2023-05-19T03:01:58;100644.03;;;16.76;87.45
9335;BME280;4706;41.844;26.082;2023-05-19T03:04:24;100643.59;;;16.74;87.85
9335;BME280;4706;41.844;26.082;2023-05-19T03:06:49;100629.53;;;16.70;88.35
9335;BME280;4706;41.844;26.082;2023-05-19T03:09:15;100651.56;;;16.75;88.53
9335;BME280;4706;41.844;26.082;2023-05-19T03:11:41;100645.31;;;16.79;88.60
9335;BME280;4706;41.844;26.082;2023-05-19T03:14:06;100653.66;;;16.79;87.82
9335;BME280;4706;41.844;26.082;2023-05-19T03:16:34;100644.69;;;16.73;88.27
9335;BME280;4706;41.844;26.082;2023-05-19T03:19:00;100667.19;;;16.80;88.08
9335;BME280;4706;41.844;26.082;2023-05-19T03:21:26;100658.91;;;16.71;88.25
9335;BME280;4706;41.844;26.082;2023-05-19T03:23:52;100658.09;;;16.71;87.88
9335;BME280;4706;41.844;26.082;2023-05-19T03:26:18;100665.44;;;16.75;87.52
9335;BME280;4706;41.844;26.082;2023-05-19T03:28:44;100662.50;;;16.72;87.71
9335;BME280;4706;41.844;26.082;2023-05-19T03:31:10;100672.31;;;16.69;87.76
9335;BME280;4706;41.844;26.082;2023-05-19T03:33:35;100668.06;;;16.72;87.39
9335;BME280;4706;41.844;26.082;2023-05-19T03:36:00;100672.19;;;16.66;87.56
9335;BME280;4706;41.844;26.082;2023-05-19T03:38:26;100676.47;;;16.63;87.48
9335;BME280;4706;41.844;26.082;2023-05-19T03:40:52;100685.75;;;16.67;87.69
9335;BME280;4706;41.844;26.082;2023-05-19T03:43:17;100683.78;;;16.68;87.91
9335;BME280;4706;41.844;26.082;2023-05-19T03:45:43;100686.84;;;16.75;88.03
9335;BME280;4706;41.844;26.082;2023-05-19T03:48:09;100684.09;;;16.75;88.45
9335;BME280;4706;41.844;26.082;2023-05-19T03:50:34;100688.16;;;16.78;88.16
9335;BME280;4706;41.844;26.082;2023-05-19T03:53:02;100684.88;;;16.75;88.34
9335;BME280;4706;41.844;26.082;2023-05-19T03:55:28;100688.97;;;16.78;87.99
9335;BME280;4706;41.844;26.082;2023-05-19T03:57:54;100689.56;;;16.84;88.20
9335;BME280;4706;41.844;26.082;2023-05-19T04:00:21;100685.44;;;16.90;88.59
9335;BME280;4706;41.844;26.082;2023-05-19T04:02:46;100690.13;;;17.10;88.39
9335;BME280;4706;41.844;26.082;2023-05-19T04:05:13;100688.53;;;17.21;88.28
9335;BME280;4706;41.844;26.082;2023-05-19T04:07:38;100683.47;;;17.23;87.23
9335;BME280;4706;41.844;26.082;2023-05-19T04:10:04;100699.38;;;17.35;86.31
9335;BME280;4706;41.844;26.082;2023-05-19T04:12:29;100705.97;;;17.43;85.76
9335;BME280;4706;41.844;26.082;2023-05-19T04:14:55;100713.03;;;17.40;85.61
9335;BME280;4706;41.844;26.082;2023-05-19T04:17:20;100710.63;;;17.39;85.89
9335;BME280;4706;41.844;26.082;2023-05-19T04:19:47;100680.75;;;17.15;85.64
9335;BME280;4706;41.844;26.082;2023-05-19T04:22:13;100706.41;;;17.33;86.22
9335;BME280;4706;41.844;26.082;2023-05-19T04:24:38;100707.44;;;17.28;87.03
9335;BME280;4706;41.844;26.082;2023-05-19T04:27:04;100706.97;;;17.26;86.63
9335;BME280;4706;41.844;26.082;2023-05-19T04:29:36;100704.78;;;17.32;87.64
9335;BME280;4706;41.844;26.082;2023-05-19T04:32:03;100711.19;;;17.44;87.07
9335;BME280;4706;41.844;26.082;2023-05-19T04:34:35;100715.88;;;17.53;86.18
9335;BME280;4706;41.844;26.082;2023-05-19T04:37:05;100711.38;;;17.60;85.90
9335;BME280;4706;41.844;26.082;2023-05-19T04:39:31;100707.75;;;17.60;86.60
9335;BME280;4706;41.844;26.082;2023-05-19T04:41:56;100718.34;;;17.79;85.81
9335;BME280;4706;41.844;26.082;2023-05-19T04:44:22;100716.06;;;17.93;85.72
9335;BME280;4706;41.844;26.082;2023-05-19T04:46:48;100711.88;;;17.99;84.97
9335;BME280;4706;41.844;26.082;2023-05-19T04:49:14;100709.34;;;18.06;84.19
9335;BME280;4706;41.844;26.082;2023-05-19T04:51:39;100720.69;;;18.26;83.77
9335;BME280;4706;41.844;26.082;2023-05-19T04:54:10;100719.06;;;18.37;83.57
9335;BME280;4706;41.844;26.082;2023-05-19T04:56:35;100723.22;;;18.55;83.67
9335;BME280;4706;41.844;26.082;2023-05-19T04:59:01;100720.66;;;18.62;82.09
9335;BME280;4706;41.844;26.082;2023-05-19T05:01:26;100723.66;;;18.69;81.69
9335;BME280;4706;41.844;26.082;2023-05-19T05:03:53;100720.03;;;18.69;81.75
9335;BME280;4706;41.844;26.082;2023-05-19T05:06:23;100727.38;;;18.74;81.54
9335;BME280;4706;41.844;26.082;2023-05-19T05:08:49;100730.97;;;18.62;80.38
9335;BME280;4706;41.844;26.082;2023-05-19T05:11:15;100729.63;;;18.43;80.92
9335;BME280;4706;41.844;26.082;2023-05-19T05:13:41;100739.13;;;18.42;81.09
9335;BME280;4706;41.844;26.082;2023-05-19T05:16:08;100729.63;;;18.43;81.39
9335;BME280;4706;41.844;26.082;2023-05-19T05:18:34;100737.03;;;18.52;81.63
9335;BME280;4706;41.844;26.082;2023-05-19T05:21:01;100738.16;;;18.63;81.71
9335;BME280;4706;41.844;26.082;2023-05-19T05:23:27;100739.09;;;18.79;81.37
9335;BME280;4706;41.844;26.082;2023-05-19T05:25:53;100731.84;;;18.90;80.89
9335;BME280;4706;41.844;26.082;2023-05-19T05:28:19;100731.69;;;18.99;80.04
9335;BME280;4706;41.844;26.082;2023-05-19T05:30:44;100731.69;;;18.99;79.84
9335;BME280;4706;41.844;26.082;2023-05-19T05:33:10;100732.47;;;19.12;79.28
9335;BME280;4706;41.844;26.082;2023-05-19T05:35:36;100744.34;;;19.09;79.86
9335;BME280;4706;41.844;26.082;2023-05-19T05:38:02;100741.28;;;19.14;79.93
9335;BME280;4706;41.844;26.082;2023-05-19T05:40:27;100746.41;;;19.12;79.95
9335;BME280;4706;41.844;26.082;2023-05-19T05:42:53;100745.09;;;19.22;79.73
9335;BME280;4706;41.844;26.082;2023-05-19T05:45:23;100751.88;;;19.36;78.69
9335;BME280;4706;41.844;26.082;2023-05-19T05:47:49;100755.41;;;19.33;79.20
9335;BME280;4706;41.844;26.082;2023-05-19T05:50:15;100764.41;;;19.42;78.19
9335;BME280;4706;41.844;26.082;2023-05-19T05:52:45;100772.16;;;19.49;78.15
9335;BME280;4706;41.844;26.082;2023-05-19T05:55:11;100771.25;;;19.45;78.75
9335;BME280;4706;41.844;26.082;2023-05-19T05:57:37;100770.81;;;19.59;78.99
9335;BME280;4706;41.844;26.082;2023-05-19T06:00:07;100772.16;;;19.93;78.05
9335;BME280;4706;41.844;26.082;2023-05-19T06:02:41;100785.69;;;20.38;77.22
9335;BME280;4706;41.844;26.082;2023-05-19T06:05:08;100785.66;;;20.70;76.39
9335;BME280;4706;41.844;26.082;2023-05-19T06:07:37;100785.91;;;21.00;74.59
9335;BME280;4706;41.844;26.082;2023-05-19T06:10:03;100785.91;;;21.20;73.12
9335;BME280;4706;41.844;26.082;2023-05-19T06:12:29;100770.16;;;21.31;74.04
9335;BME280;4706;41.844;26.082;2023-05-19T06:14:54;100765.25;;;21.44;73.96
9335;BME280;4706;41.844;26.082;2023-05-19T06:17:20;100764.47;;;21.66;71.23
9335;BME280;4706;41.844;26.082;2023-05-19T06:19:45;100766.13;;;21.90;71.20
9335;BME280;4706;41.844;26.082;2023-05-19T06:22:11;100771.97;;;22.04;70.76
9335;BME280;4706;41.844;26.082;2023-05-19T06:24:36;100769.59;;;22.29;68.94
9335;BME280;4706;41.844;26.082;2023-05-19T06:27:02;100770.16;;;22.39;67.14
9335;BME280;4706;41.844;26.082;2023-05-19T06:29:28;100775.38;;;22.40;66.51
9335;BME280;4706;41.844;26.082;2023-05-19T06:31:54;100767.53;;;22.49;67.90
9335;BME280;4706;41.844;26.082;2023-05-19T06:34:20;100762.56;;;22.66;66.13
9335;BME280;4706;41.844;26.082;2023-05-19T06:36:45;100769.41;;;22.68;65.04
9335;BME280;4706;41.844;26.082;2023-05-19T06:39:11;100767.44;;;22.99;64.47
9335;BME280;4706;41.844;26.082;2023-05-19T06:41:36;100765.63;;;23.14;64.43
9335;BME280;4706;41.844;26.082;2023-05-19T06:44:03;100767.78;;;23.27;65.67
9335;BME280;4706;41.844;26.082;2023-05-19T06:46:28;100768.31;;;23.37;63.61
9335;BME280;4706;41.844;26.082;2023-05-19T06:48:53;100759.22;;;23.47;63.80
9335;BME280;4706;41.844;26.082;2023-05-19T06:51:19;100763.22;;;23.49;63.86
9335;BME280;4706;41.844;26.082;2023-05-19T06:53:49;100764.66;;;23.66;64.22
9335;BME280;4706;41.844;26.082;2023-05-19T06:56:15;100766.38;;;23.78;63.64
9335;BME280;4706;41.844;26.082;2023-05-19T06:58:40;100768.50;;;23.88;63.06
9335;BME280;4706;41.844;26.082;2023-05-19T07:01:06;100770.50;;;23.91;63.94
9335;BME280;4706;41.844;26.082;2023-05-19T07:03:31;100770.56;;;23.98;63.58
9335;BME280;4706;41.844;26.082;2023-05-19T07:05:57;100773.03;;;24.04;63.67
9335;BME280;4706;41.844;26.082;2023-05-19T07:08:22;100767.91;;;24.13;63.80
9335;BME280;4706;41.844;26.082;2023-05-19T07:10:48;100769.44;;;24.07;62.42
9335;BME280;4706;41.844;26.082;2023-05-19T07:13:13;100765.50;;;24.15;63.66
9335;BME280;4706;41.844;26.082;2023-05-19T07:15:39;100773.56;;;24.20;65.03
9335;BME280;4706;41.844;26.082;2023-05-19T07:18:04;100773.22;;;24.29;63.14
9335;BME280;4706;41.844;26.082;2023-05-19T07:20:30;100756.03;;;24.34;62.51
9335;BME280;4706;41.844;26.082;2023-05-19T07:22:55;100771.53;;;24.65;62.28
9335;BME280;4706;41.844;26.082;2023-05-19T07:25:21;100760.84;;;24.99;60.58
9335;BME280;4706;41.844;26.082;2023-05-19T07:27:46;100766.59;;;25.17;58.44
9335;BME280;4706;41.844;26.082;2023-05-19T07:30:12;100771.94;;;25.43;58.35
9335;BME280;4706;41.844;26.082;2023-05-19T07:32:37;100772.78;;;25.62;57.46
9335;BME280;4706;41.844;26.082;2023-05-19T07:35:04;100778.78;;;25.57;57.63
9335;BME280;4706;41.844;26.082;2023-05-19T07:37:30;100777.63;;;25.72;57.14
9335;BME280;4706;41.844;26.082;2023-05-19T07:39:55;100767.22;;;26.01;56.03
9335;BME280;4706;41.844;26.082;2023-05-19T07:42:21;100772.88;;;26.19;57.64
9335;BME280;4706;41.844;26.082;2023-05-19T07:44:46;100775.28;;;26.35;55.57
9335;BME280;4706;41.844;26.082;2023-05-19T07:47:12;100774.88;;;26.47;54.50
9335;BME280;4706;41.844;26.082;2023-05-19T07:49:37;100773.63;;;26.66;54.47
9335;BME280;4706;41.844;26.082;2023-05-19T07:52:03;100779.25;;;26.84;53.45
9335;BME280;4706;41.844;26.082;2023-05-19T07:54:28;100778.38;;;27.05;53.59
9335;BME280;4706;41.844;26.082;2023-05-19T07:56:54;100780.38;;;27.15;53.01
9335;BME280;4706;41.844;26.082;2023-05-19T07:59:19;100781.16;;;27.23;52.35
9335;BME280;4706;41.844;26.082;2023-05-19T08:01:45;100777.94;;;27.24;52.13
9335;BME280;4706;41.844;26.082;2023-05-19T08:04:10;100767.81;;;27.30;52.58
9335;BME280;4706;41.844;26.082;2023-05-19T08:06:36;100773.13;;;27.03;53.26
9335;BME280;4706;41.844;26.082;2023-05-19T08:09:02;100784.44;;;27.03;53.44
9335;BME280;4706;41.844;26.082;2023-05-19T08:11:28;100781.59;;;27.03;53.44
9335;BME280;4706;41.844;26.082;2023-05-19T08:13:53;100772.66;;;27.30;53.16
9335;BME280;4706;41.844;26.082;2023-05-19T08:16:19;100774.63;;;27.40;52.72
9335;BME280;4706;41.844;26.082;2023-05-19T08:18:44;100780.56;;;27.60;51.97
9335;BME280;4706;41.844;26.082;2023-05-19T08:21:10;100769.97;;;27.78;51.82
9335;BME280;4706;41.844;26.082;2023-05-19T08:23:36;100776.00;;;27.88;52.72
9335;BME280;4706;41.844;26.082;2023-05-19T08:26:02;100771.84;;;27.99;51.79
9335;BME280;4706;41.844;26.082;2023-05-19T08:28:27;100760.13;;;28.01;50.24
9335;BME280;4706;41.844;26.082;2023-05-19T08:30:52;100766.47;;;28.16;50.90
9335;BME280;4706;41.844;26.082;2023-05-19T08:33:18;100750.69;;;28.18;50.85
9335;BME280;4706;41.844;26.082;2023-05-19T08:35:46;100768.69;;;28.42;50.48
9335;BME280;4706;41.844;26.082;2023-05-19T08:38:12;100767.78;;;28.52;51.01
9335;BME280;4706;41.844;26.082;2023-05-19T08:40:40;100772.16;;;28.61;49.56
9335;BME280;4706;41.844;26.082;2023-05-19T08:43:06;100766.63;;;28.46;49.64
9335;BME280;4706;41.844;26.082;2023-05-19T08:45:31;100766.81;;;28.70;49.35
9335;BME280;4706;41.844;26.082;2023-05-19T08:47:58;100766.94;;;28.93;48.59
9335;BME280;4706;41.844;26.082;2023-05-19T08:50:29;100768.53;;;28.98;49.17
9335;BME280;4706;41.844;26.082;2023-05-19T08:53:03;100761.97;;;29.04;48.03
9335;BME280;4706;41.844;26.082;2023-05-19T08:57:59;100762.88;;;28.94;47.60
9335;BME280;4706;41.844;26.082;2023-05-19T09:00:25;100763.84;;;28.80;47.97
9335;BME280;4706;41.844;26.082;2023-05-19T09:02:51;100757.31;;;28.49;47.74
9335;BME280;4706;41.844;26.082;2023-05-19T09:05:18;100751.41;;;28.29;47.78
9335;BME280;4706;41.844;26.082;2023-05-19T09:07:43;100752.28;;;28.19;48.52
9335;BME280;4706;41.844;26.082;2023-05-19T09:10:09;100751.78;;;28.31;48.38
9335;BME280;4706;41.844;26.082;2023-05-19T09:12:43;100752.50;;;28.43;47.73
9335;BME280;4706;41.844;26.082;2023-05-19T09:15:16;100758.53;;;28.48;47.39
9335;BME280;4706;41.844;26.082;2023-05-19T09:17:45;100741.69;;;28.30;46.67
9335;BME280;4706;41.844;26.082;2023-05-19T09:20:12;100749.72;;;28.36;47.16
9335;BME280;4706;41.844;26.082;2023-05-19T09:22:46;100745.97;;;28.04;47.98
9335;BME280;4706;41.844;26.082;2023-05-19T09:25:24;100748.97;;;27.79;48.98
9335;BME280;4706;41.844;26.082;2023-05-19T09:27:49;100745.53;;;27.50;48.63
9335;BME280;4706;41.844;26.082;2023-05-19T09:30:16;100752.06;;;27.33;49.14
9335;BME280;4706;41.844;26.082;2023-05-19T09:32:42;100747.03;;;27.66;48.52
9335;BME280;4706;41.844;26.082;2023-05-19T09:35:08;100747.03;;;28.21;44.90
9335;BME280;4706;41.844;26.082;2023-05-19T09:37:41;100742.47;;;28.35;41.79
9335;BME280;4706;41.844;26.082;2023-05-19T09:40:12;100735.41;;;28.08;44.07
9335;BME280;4706;41.844;26.082;2023-05-19T09:42:39;100747.56;;;28.05;44.52
9335;BME280;4706;41.844;26.082;2023-05-19T09:45:06;100748.00;;;28.00;44.30
9335;BME280;4706;41.844;26.082;2023-05-19T09:47:37;100746.00;;;27.97;44.36
9335;BME280;4706;41.844;26.082;2023-05-19T09:50:07;100754.91;;;27.99;44.23
9335;BME280;4706;41.844;26.082;2023-05-19T09:52:42;100748.16;;;27.79;44.69
9335;BME280;4706;41.844;26.082;2023-05-19T09:55:09;100761.53;;;27.68;45.94
9335;BME280;4706;41.844;26.082;2023-05-19T09:57:36;100749.97;;;27.44;45.04
9335;BME280;4706;41.844;26.082;2023-05-19T10:00:06;100761.38;;;27.23;44.95
9335;BME280;4706;41.844;26.082;2023-05-19T10:02:43;100767.47;;;27.18;44.23
9335;BME280;4706;41.844;26.082;2023-05-19T10:05:12;100767.94;;;26.95;44.38
9335;BME280;4706;41.844;26.082;2023-05-19T10:07:39;100764.78;;;26.75;44.24
9335;BME280;4706;41.844;26.082;2023-05-19T10:10:08;100755.53;;;26.60;43.91
9335;BME280;4706;41.844;26.082;2023-05-19T10:12:38;100758.34;;;26.38;44.86
9335;BME280;4706;41.844;26.082;2023-05-19T10:15:12;100758.34;;;26.38;45.53
9335;BME280;4706;41.844;26.082;2023-05-19T10:17:38;100756.75;;;26.37;45.73
9335;BME280;4706;41.844;26.082;2023-05-19T10:20:14;100763.56;;;26.36;45.09
9335;BME280;4706;41.844;26.082;2023-05-19T10:22:41;100760.75;;;26.44;44.40
9335;BME280;4706;41.844;26.082;2023-05-19T10:25:08;100757.13;;;26.43;44.04
9335;BME280;4706;41.844;26.082;2023-05-19T10:27:36;100754.75;;;26.52;43.89
9335;BME280;4706;41.844;26.082;2023-05-19T10:30:17;100752.72;;;26.60;44.04
9335;BME280;4706;41.844;26.082;2023-05-19T10:32:46;100745.81;;;26.72;43.55
9335;BME280;4706;41.844;26.082;2023-05-19T10:35:32;100745.38;;;26.80;42.65
9335;BME280;4706;41.844;26.082;2023-05-19T10:46:05;100725.56;;;27.79;40.90
9335;BME280;4706;41.844;26.082;2023-05-19T10:48:34;100743.25;;;27.87;40.56
9335;BME280;4706;41.844;26.082;2023-05-19T10:51:03;100738.69;;;28.03;39.84
9335;BME280;4706;41.844;26.082;2023-05-19T10:53:31;100736.63;;;28.11;40.76
9335;BME280;4706;41.844;26.082;2023-05-19T10:55:57;100740.53;;;28.24;38.56
9335;BME280;4706;41.844;26.082;2023-05-19T11:01:17;100746.50;;;28.37;39.04
9335;BME280;4706;41.844;26.082;2023-05-19T11:03:50;100729.47;;;28.44;39.93
9335;BME280;4706;41.844;26.082;2023-05-19T11:06:26;100735.50;;;28.46;40.05
9335;BME280;4706;41.844;26.082;2023-05-19T11:08:56;100725.31;;;28.56;39.99
9335;BME280;4706;41.844;26.082;2023-05-19T11:11:22;100729.44;;;28.48;39.94
9335;BME280;4706;41.844;26.082;2023-05-19T11:13:54;100723.75;;;28.51;39.73
9335;BME280;4706;41.844;26.082;2023-05-19T11:16:33;100729.06;;;28.42;38.81
9335;BME280;4706;41.844;26.082;2023-05-19T11:18:59;100731.16;;;28.31;40.56
9335;BME280;4706;41.844;26.082;2023-05-19T11:21:46;100720.34;;;28.22;40.79
9335;BME280;4706;41.844;26.082;2023-05-19T11:24:32;100718.69;;;28.28;41.34
9335;BME280;4706;41.844;26.082;2023-05-19T11:26:58;100714.69;;;28.22;40.24
9335;BME280;4706;41.844;26.082;2023-05-19T11:29:23;100713.94;;;28.18;39.63
9335;BME280;4706;41.844;26.082;2023-05-19T11:31:50;100709.94;;;28.12;39.84
9335;BME280;4706;41.844;26.082;2023-05-19T11:34:16;100716.03;;;27.51;40.73
9335;BME280;4706;41.844;26.082;2023-05-19T11:36:43;100705.66;;;27.30;41.79
9335;BME280;4706;41.844;26.082;2023-05-19T11:39:10;100712.28;;;26.92;41.70
9335;BME280;4706;41.844;26.082;2023-05-19T11:41:38;100714.34;;;26.77;42.92
9335;BME280;4706;41.844;26.082;2023-05-19T11:44:09;100713.13;;;26.81;42.52
9335;BME280;4706;41.844;26.082;2023-05-19T11:46:35;100701.41;;;26.94;43.43
9335;BME280;4706;41.844;26.082;2023-05-19T11:49:00;100696.16;;;26.92;43.78
9335;BME280;4706;41.844;26.082;2023-05-19T11:51:26;100708.19;;;27.03;43.97
9335;BME280;4706;41.844;26.082;2023-05-19T11:53:52;100696.56;;;26.94;44.69
9335;BME280;4706;41.844;26.082;2023-05-19T11:56:19;100700.59;;;26.93;45.96
9335;BME280;4706;41.844;26.082;2023-05-19T11:58:45;100704.22;;;26.97;46.22
9335;BME280;4706;41.844;26.082;2023-05-19T12:01:11;100692.94;;;26.94;46.45
9335;BME280;4706;41.844;26.082;2023-05-19T12:03:36;100705.00;;;27.01;45.78
9335;BME280;4706;41.844;26.082;2023-05-19T12:06:02;100702.19;;;27.01;46.03
9335;BME280;4706;41.844;26.082;2023-05-19T12:08:30;100703.78;;;26.99;51.19
9335;BME280;4706;41.844;26.082;2023-05-19T12:10:55;100710.25;;;26.96;52.89
9335;BME280;4706;41.844;26.082;2023-05-19T12:13:21;100717.56;;;26.90;53.77
9335;BME280;4706;41.844;26.082;2023-05-19T12:15:49;100735.75;;;26.74;52.96
9335;BME280;4706;41.844;26.082;2023-05-19T12:18:15;100791.00;;;26.57;53.06
9335;BME280;4706;41.844;26.082;2023-05-19T12:20:40;100841.59;;;24.88;56.16
9335;BME280;4706;41.844;26.082;2023-05-19T12:23:06;100849.97;;;23.58;62.37
9335;BME280;4706;41.844;26.082;2023-05-19T12:25:32;100858.28;;;22.18;64.12
9335;BME280;4706;41.844;26.082;2023-05-19T12:27:59;100851.88;;;21.56;69.12
9335;BME280;4706;41.844;26.082;2023-05-19T12:30:26;100866.75;;;21.41;73.04
9335;BME280;4706;41.844;26.082;2023-05-19T12:32:53;100863.50;;;21.39;74.49
9335;BME280;4706;41.844;26.082;2023-05-19T12:35:25;100861.31;;;21.32;73.77
9335;BME280;4706;41.844;26.082;2023-05-19T12:37:50;100844.31;;;21.21;75.30
9335;BME280;4706;41.844;26.082;2023-05-19T12:40:16;100836.72;;;21.22;75.56
9335;BME280;4706;41.844;26.082;2023-05-19T12:42:44;100829.09;;;21.38;75.83
9335;BME280;4706;41.844;26.082;2023-05-19T12:45:10;100830.06;;;21.46;78.81
9335;BME280;4706;41.844;26.082;2023-05-19T12:47:36;100831.91;;;21.57;77.16
9335;BME280;4706;41.844;26.082;2023-05-19T12:50:03;100814.44;;;21.64;80.46
9335;BME280;4706;41.844;26.082;2023-05-19T12:52:31;100798.44;;;21.65;79.74
9335;BME280;4706;41.844;26.082;2023-05-19T12:55:06;100786.25;;;21.76;80.16
9335;BME280;4706;41.844;26.082;2023-05-19T12:57:36;100766.25;;;21.74;81.79
9335;BME280;4706;41.844;26.082;2023-05-19T13:00:03;100770.72;;;21.79;80.46
9335;BME280;4706;41.844;26.082;2023-05-19T13:02:33;100775.94;;;21.80;81.49
9335;BME280;4706;41.844;26.082;2023-05-19T13:04:58;100772.47;;;21.87;79.69
9335;BME280;4706;41.844;26.082;2023-05-19T13:07:24;100789.66;;;22.09;79.65
9335;BME280;4706;41.844;26.082;2023-05-19T13:09:50;100793.00;;;21.95;80.69
9335;BME280;4706;41.844;26.082;2023-05-19T13:12:15;100798.91;;;22.13;80.81
9335;BME280;4706;41.844;26.082;2023-05-19T13:14:40;100793.09;;;22.21;80.63
9335;BME280;4706;41.844;26.082;2023-05-19T13:17:07;100808.34;;;22.24;81.25
9335;BME280;4706;41.844;26.082;2023-05-19T13:19:33;100807.28;;;22.32;82.43
9335;BME280;4706;41.844;26.082;2023-05-19T13:21:58;100805.66;;;22.31;82.74
9335;BME280;4706;41.844;26.082;2023-05-19T13:24:24;100805.66;;;22.31;83.80